Time;durP1;ratioP1;P1;durP2;ratioP2;P2;SDS_P1;SDS_P2;PMS_P1;PMS_P2;Temp;Humidity;BMP_temperature;BMP_pressure;BME280_temperature;BME280_humidity;BME280_pressure;Samples;Min_cycle;Max_cycle;Signal;HPM_P1;HPM_P2
2022/04/17 00:00:39;;;;;;;9.20;5.03;;;;;;;5.13;55.27;102863.94;5036616;28;20469;-89
2022/04/17 00:03:06;;;;;;;10.47;5.47;;;;;;;5.11;56.24;102874.75;5036094;28;20029;-89
2022/04/17 00:05:32;;;;;;;13.38;5.70;;;;;;;5.09;56.43;102868.78;5036474;28;20068;-89
2022/04/17 00:07:57;;;;;;;9.07;4.90;;;;;;;5.09;56.42;102865.31;5035261;28;20045;-89
2022/04/17 00:10:23;;;;;;;9.70;5.10;;;;;;;5.06;55.70;102866.44;5035403;28;20040;-89
2022/04/17 00:12:48;;;;;;;8.00;5.30;;;;;;;5.11;56.00;102864.13;5035912;28;20053;-89
2022/04/17 00:15:14;;;;;;;9.82;4.75;;;;;;;5.11;55.43;102864.13;5035777;28;20065;-89
2022/04/17 00:17:42;;;;;;;7.30;5.33;;;;;;;5.09;56.72;102860.00;5019225;28;20041;-89
2022/04/17 00:20:12;;;;;;;6.95;4.45;;;;;;;5.06;56.07;102862.97;5053203;28;20121;-89
2022/04/17 00:22:39;;;;;;;8.95;5.07;;;;;;;5.00;55.29;102856.53;5038098;28;20131;-89
2022/04/17 00:25:08;;;;;;;8.98;4.80;;;;;;;5.03;55.17;102860.66;5053949;28;20497;-89
2022/04/17 00:27:34;;;;;;;8.90;4.70;;;;;;;4.98;56.06;102854.03;5055295;28;20053;-89
2022/04/17 00:29:59;;;;;;;7.37;4.60;;;;;;;4.94;56.81;102865.16;5054765;28;20382;-89
2022/04/17 00:32:30;;;;;;;7.05;4.32;;;;;;;4.81;55.54;102858.56;5055045;28;20111;-89
2022/04/17 00:34:55;;;;;;;6.70;4.95;;;;;;;4.80;55.32;102861.38;5055235;28;20021;-89
2022/04/17 00:37:40;;;;;;;7.30;4.57;;;;;;;4.63;55.31;102842.81;5054460;28;20225;-89
2022/04/17 00:40:09;;;;;;;7.05;4.20;;;;;;;4.64;55.31;102849.78;5052768;28;20495;-89
2022/04/17 00:42:44;;;;;;;6.68;3.97;;;;;;;4.64;56.04;102852.44;5054448;28;20025;-89
2022/04/17 00:45:09;;;;;;;7.82;4.30;;;;;;;4.53;54.88;102839.50;5053053;28;20112;-89
2022/04/17 00:47:41;;;;;;;8.03;4.30;;;;;;;4.57;55.47;102840.81;5054958;28;20028;-90
2022/04/17 00:50:09;;;;;;;8.35;4.65;;;;;;;4.55;55.33;102834.88;5054328;28;20036;-89
2022/04/17 00:52:39;;;;;;;8.18;4.32;;;;;;;4.52;56.40;102835.19;5054593;28;20029;-89
2022/04/17 00:55:47;;;;;;;8.45;3.92;;;;;;;4.52;55.65;102859.09;5054877;28;20080;-89
2022/04/17 00:58:44;;;;;;;6.45;3.70;;;;;;;4.42;56.10;102859.25;4991526;28;20046;-89
2022/04/17 01:01:36;;;;;;;6.45;3.90;;;;;;;4.22;57.63;102832.22;4992557;28;20420;-89
2022/04/17 01:04:05;;;;;;;6.97;3.67;;;;;;;4.09;57.05;102838.03;4992891;28;20569;-89
2022/04/17 01:06:40;;;;;;;6.17;3.83;;;;;;;4.12;58.61;102855.44;4993219;28;20034;-89
2022/04/17 01:09:50;;;;;;;5.90;3.80;;;;;;;4.01;58.08;102846.81;4991351;28;20309;-89
2022/04/17 01:12:19;;;;;;;7.15;4.40;;;;;;;3.85;60.10;102823.72;5015528;28;20079;-89
2022/04/17 01:14:44;;;;;;;7.95;4.50;;;;;;;3.90;59.21;102849.75;5054491;28;20435;-89
2022/04/17 01:17:12;;;;;;;9.57;4.00;;;;;;;3.85;58.73;102837.00;5036125;28;20021;-89
2022/04/17 01:19:39;;;;;;;8.37;4.00;;;;;;;3.78;58.35;102847.44;5054158;28;20079;-89
2022/04/17 01:22:11;;;;;;;6.53;4.10;;;;;;;3.81;60.33;102850.75;5055648;28;20029;-88
2022/04/17 01:27:21;;;;;;;8.77;4.05;;;;;;;3.66;60.85;102837.28;5053655;28;20044;-88
2022/04/17 01:29:47;;;;;;;7.18;3.97;;;;;;;3.63;61.34;102852.53;5051975;28;20057;-89
2022/04/17 01:32:14;;;;;;;6.25;3.92;;;;;;;3.52;61.50;102841.38;5054118;28;20111;-88
2022/04/17 01:34:39;;;;;;;5.60;3.90;;;;;;;3.47;61.88;102847.16;5052577;28;20108;-89
2022/04/17 01:37:05;;;;;;;7.53;4.10;;;;;;;3.44;63.02;102850.97;5053621;28;20615;-90
2022/04/17 01:39:30;;;;;;;6.80;3.87;;;;;;;3.37;63.07;102846.47;5052757;28;20455;-90
2022/04/17 01:41:58;;;;;;;6.80;3.97;;;;;;;3.28;62.99;102850.91;5053747;28;20025;-88
2022/04/17 01:44:25;;;;;;;8.93;4.18;;;;;;;3.16;62.98;102853.00;5053427;28;20105;-89
2022/04/17 01:46:51;;;;;;;6.18;3.83;;;;;;;3.14;64.27;102855.81;5053617;28;20033;-88
2022/04/17 01:49:17;;;;;;;6.67;4.43;;;;;;;3.09;64.64;102851.97;5052286;28;20039;-88
2022/04/17 01:51:44;;;;;;;7.93;4.30;;;;;;;3.05;65.13;102850.63;5053645;28;20279;-88
2022/04/17 01:54:12;;;;;;;6.72;3.90;;;;;;;2.93;66.35;102842.94;5035539;28;20040;-89
2022/04/17 01:56:39;;;;;;;6.97;4.00;;;;;;;2.87;66.31;102855.00;5053072;28;20075;-88
2022/04/17 01:59:11;;;;;;;8.25;4.30;;;;;;;2.80;66.39;102840.72;5052532;28;20445;-88
2022/04/17 02:01:38;;;;;;;8.52;4.78;;;;;;;2.82;66.99;102844.03;5053229;28;20706;-89
2022/04/17 02:04:13;;;;;;;10.23;4.50;;;;;;;2.79;66.89;102836.41;5052510;28;20070;-88
2022/04/17 02:06:42;;;;;;;7.15;4.00;;;;;;;2.71;66.65;102839.03;5051724;28;20036;-89
2022/04/17 02:09:17;;;;;;;6.10;4.07;;;;;;;2.51;67.52;102815.41;5075900;22;20531;-88
2022/04/17 02:11:46;;;;;;;9.45;4.20;;;;;;;2.54;68.31;102838.91;5073069;28;20028;-89
2022/04/17 02:14:21;;;;;;;7.90;4.53;;;;;;;2.44;68.37;102838.16;5072364;28;20076;-89
2022/04/17 02:16:47;;;;;;;6.87;4.23;;;;;;;2.37;69.89;102832.66;5055059;28;20294;-89
2022/04/17 02:19:13;;;;;;;7.20;4.25;;;;;;;2.35;69.68;102839.09;5072153;28;20027;-90
2022/04/17 02:21:38;;;;;;;5.90;4.07;;;;;;;2.32;70.21;102844.69;5073153;28;20028;-89
2022/04/17 02:24:05;;;;;;;6.10;3.73;;;;;;;2.24;70.41;102838.34;5072432;28;20028;-90
2022/04/17 02:26:31;;;;;;;6.10;3.92;;;;;;;2.15;70.07;102838.41;5071745;28;20368;-89
2022/04/17 02:28:57;;;;;;;8.77;4.40;;;;;;;2.09;70.89;102840.69;5072068;28;20040;-89
2022/04/17 02:31:23;;;;;;;5.40;3.95;;;;;;;2.08;71.45;102838.19;5073158;28;20041;-89
2022/04/17 02:33:49;;;;;;;9.13;4.80;;;;;;;2.10;71.34;102833.59;5073908;28;20025;-88
2022/04/17 02:36:14;;;;;;;8.32;4.60;;;;;;;2.14;71.15;102834.94;5074199;28;20683;-89
2022/04/17 02:38:40;;;;;;;8.97;4.10;;;;;;;2.16;71.09;102830.34;5073402;28;20077;-89
2022/04/17 02:41:05;;;;;;;7.70;4.30;;;;;;;2.16;70.94;102825.06;5072018;28;20024;-89
2022/04/17 02:43:30;;;;;;;7.53;4.47;;;;;;;2.22;72.03;102824.41;5055271;28;20031;-89
2022/04/17 02:45:55;;;;;;;7.55;4.80;;;;;;;2.29;71.42;102834.41;5072727;28;20544;-89
2022/04/17 02:48:21;;;;;;;5.67;4.20;;;;;;;2.25;70.60;102826.75;5081890;28;20088;-89
2022/04/17 02:50:47;;;;;;;6.87;4.27;;;;;;;2.14;70.54;102821.72;5074450;28;20467;-89
2022/04/17 02:53:13;;;;;;;7.95;4.47;;;;;;;2.11;70.80;102827.31;5073980;28;20438;-89
2022/04/17 02:55:38;;;;;;;8.82;4.20;;;;;;;2.07;71.01;102823.31;5073706;28;20032;-89
2022/04/17 02:58:04;;;;;;;8.70;4.80;;;;;;;2.07;71.72;102825.94;5078636;28;20021;-89
2022/04/17 03:00:31;;;;;;;8.33;4.40;;;;;;;2.00;71.28;102817.78;5078315;28;20028;-89
2022/04/17 03:05:41;;;;;;;7.38;4.18;;;;;;;1.87;71.20;102826.09;5072986;28;20071;-89
2022/04/17 03:08:15;;;;;;;7.00;4.40;;;;;;;1.81;71.40;102816.97;5071155;28;20025;-88
2022/04/17 03:10:43;;;;;;;8.02;4.30;;;;;;;1.78;71.59;102817.25;5072049;28;20024;-89
2022/04/17 03:13:09;;;;;;;7.90;5.10;;;;;;;1.77;71.78;102814.75;5072441;28;20025;-89
2022/04/17 03:15:39;;;;;;;6.68;3.97;;;;;;;1.73;71.84;102818.69;5054930;28;20032;-88
2022/04/17 03:20:33;;;;;;;7.57;4.63;;;;;;;1.57;71.96;102795.53;5063121;28;20053;-89
2022/04/17 03:23:10;;;;;;;9.53;4.60;;;;;;;1.61;71.59;102803.06;5052815;28;20021;-89
2022/04/17 03:25:40;;;;;;;7.32;4.32;;;;;;;1.56;72.34;102785.94;5052903;28;20108;-88
2022/04/17 03:28:11;;;;;;;10.10;4.35;;;;;;;1.63;72.14;102809.03;5058065;28;20029;-88
2022/04/17 03:30:37;;;;;;;9.77;4.55;;;;;;;1.58;72.56;102800.69;5076597;28;20029;-88
2022/04/17 03:36:44;;;;;;;9.63;4.53;;;;;;;1.49;72.95;102796.28;5082233;28;20054;-89
2022/04/17 03:39:34;;;;;;;6.55;4.13;;;;;;;1.49;72.93;102801.56;5075869;28;20028;-89
2022/04/17 03:42:40;;;;;;;7.18;4.50;;;;;;;1.42;73.17;102796.06;5075737;28;20727;-89
2022/04/17 03:45:32;;;;;;;6.83;4.40;;;;;;;1.24;73.29;102781.97;5075806;28;20040;-89
2022/04/17 03:48:45;;;;;;;6.40;4.43;;;;;;;1.32;73.47;102788.19;5068499;28;20845;-89
2022/04/17 04:03:21;;;;;;;8.13;4.28;;;;;;;0.99;75.48;102771.97;5055136;28;20461;-89
2022/04/17 04:12:44;;;;;;;8.00;4.25;;;;;;;0.84;74.67;102776.88;5013168;28;20065;-89
2022/04/17 04:22:01;;;;;;;9.82;4.57;;;;;;;0.83;75.52;102777.03;5097440;28;20067;-88
2022/04/17 04:24:40;;;;;;;5.82;4.35;;;;;;;0.67;75.23;102760.00;5096569;28;20032;-88
2022/04/17 04:30:31;;;;;;;8.45;4.47;;;;;;;0.70;75.77;102774.69;5077147;28;20040;-87
2022/04/17 04:44:01;;;;;;;6.82;4.03;;;;;;;0.47;75.87;102753.13;5075514;28;20043;-89
2022/04/17 04:50:23;;;;;;;7.80;4.53;;;;;;;0.41;77.15;102765.88;4938222;29;20399;-88
2022/04/17 04:58:59;;;;;;;11.05;5.03;;;;;;;0.44;78.44;102752.41;4940514;29;20092;-89
2022/04/17 05:01:34;;;;;;;8.50;5.00;;;;;;;0.42;78.41;102741.19;4932499;29;20046;-87
2022/04/17 05:06:59;;;;;;;8.13;4.80;;;;;;;0.50;78.42;102760.75;4979184;28;20054;-88
2022/04/17 05:10:00;;;;;;;9.27;4.65;;;;;;;0.40;77.94;102751.03;4972889;28;20058;-89
2022/04/17 05:12:37;;;;;;;7.65;4.78;;;;;;;0.43;78.38;102750.75;4966146;28;20046;-88
2022/04/17 05:15:12;;;;;;;8.83;4.93;;;;;;;0.59;78.63;102770.44;4984723;28;20165;-89
2022/04/17 05:20:20;;;;;;;8.45;5.03;;;;;;;0.55;78.82;102750.56;5433028;22;20056;-88
2022/04/17 05:26:23;;;;;;;8.52;4.70;;;;;;;0.59;79.24;102759.88;5018389;28;20026;-88
2022/04/17 05:29:02;;;;;;;10.40;5.15;;;;;;;0.67;79.92;102764.44;5040174;28;20063;-88
2022/04/17 05:31:33;;;;;;;9.73;5.38;;;;;;;0.70;80.28;102757.06;5018190;28;20056;-88
2022/04/17 05:34:08;;;;;;;9.98;5.03;;;;;;;0.69;80.26;102752.78;5054043;28;20017;-89
2022/04/17 05:37:08;;;;;;;;;;;;;;;;;;;;;
2022/04/17 05:39:35;;;;;;;9.55;5.30;;;;;;;0.80;80.14;102748.28;5050230;28;20032;-88
2022/04/17 05:42:00;;;;;;;12.10;4.97;;;;;;;0.97;80.03;102759.88;5053875;28;20439;-89
2022/04/17 05:44:37;;;;;;;9.43;5.07;;;;;;;1.10;79.35;102773.56;5053548;28;20287;-88
2022/04/17 05:47:09;;;;;;;7.95;5.03;;;;;;;1.05;79.35;102752.91;5034507;28;20102;-89
2022/04/17 05:49:35;;;;;;;11.07;5.15;;;;;;;1.13;79.40;102749.53;5052655;28;20032;-89
2022/04/17 05:52:00;;;;;;;9.80;5.07;;;;;;;1.23;79.83;102759.19;5054024;28;20029;-89
2022/04/17 05:54:35;;;;;;;7.63;5.10;;;;;;;1.33;79.76;102766.06;5052932;28;20021;-89
2022/04/17 05:57:35;;;;;;;9.30;4.93;;;;;;;1.43;79.24;102757.28;5053259;28;20029;-90
2022/04/17 06:11:09;;;;;;;9.05;4.55;;;;;;;2.42;75.63;102771.31;4882657;29;20033;-90
2022/04/17 06:13:35;;;;;;;5.27;3.80;;;;;;;2.68;74.50;102771.31;4894566;29;20052;-91
2022/04/17 06:16:08;;;;;;;9.05;4.60;;;;;;;2.92;73.17;102763.66;4943685;29;20118;-90
2022/04/17 06:18:33;;;;;;;6.90;4.13;;;;;;;3.09;71.45;102768.03;4954759;29;20083;-90
2022/04/17 06:21:02;;;;;;;5.37;3.80;;;;;;;3.29;70.73;102763.28;4953527;29;20659;-91
2022/04/17 06:23:28;;;;;;;8.57;4.10;;;;;;;3.51;70.31;102765.50;4952425;29;20035;-90
2022/04/17 06:25:53;;;;;;;5.10;4.00;;;;;;;3.66;69.15;102752.44;4952290;29;20070;-90
2022/04/17 06:28:18;;;;;;;5.23;3.60;;;;;;;3.90;67.58;102757.78;4951859;29;20307;-90
2022/04/17 06:30:44;;;;;;;7.80;4.03;;;;;;;4.14;66.88;102752.63;4972315;28;20477;-90
2022/04/17 06:33:09;;;;;;;8.10;3.50;;;;;;;4.25;65.35;102752.25;5032578;28;20083;-90
2022/04/17 06:35:40;;;;;;;10.30;3.70;;;;;;;4.48;65.40;102759.53;5033606;28;20033;-91
2022/04/17 06:38:12;;;;;;;6.78;3.50;;;;;;;4.64;64.66;102770.09;5033058;28;20557;-90
2022/04/17 06:40:37;;;;;;;7.13;3.35;;;;;;;4.66;64.13;102749.53;5033136;28;20124;-90
2022/04/17 06:43:08;;;;;;;3.67;3.30;;;;;;;4.88;64.34;102763.06;5032866;28;20497;-90
2022/04/17 06:45:38;;;;;;;7.22;3.75;;;;;;;4.95;62.91;102757.91;5033328;28;20033;-89
2022/04/17 06:48:21;;;;;;;7.85;3.90;;;;;;;5.08;64.16;102754.69;5015029;28;20025;-89
2022/04/17 06:50:49;;;;;;;5.10;3.60;;;;;;;5.17;63.20;102752.81;5030799;28;20164;-89
2022/04/17 06:53:27;;;;;;;6.53;3.63;;;;;;;5.33;61.83;102758.03;5033357;28;20013;-90
2022/04/17 06:55:52;;;;;;;8.20;3.42;;;;;;;5.39;61.96;102749.34;5032944;28;20035;-91
2022/04/17 06:58:20;;;;;;;5.78;3.40;;;;;;;5.47;62.58;102751.16;5032346;28;20052;-91
2022/04/17 07:00:47;;;;;;;3.80;3.33;;;;;;;5.69;60.39;102759.28;5032249;28;20033;-90
2022/04/17 07:03:21;;;;;;;6.37;3.00;;;;;;;5.84;60.36;102762.03;5015286;28;20021;-90
2022/04/17 07:05:57;;;;;;;5.00;3.70;;;;;;;6.06;60.04;102752.38;5033485;28;20287;-90
2022/04/17 07:08:22;;;;;;;6.95;3.10;;;;;;;6.30;59.64;102758.50;5043358;28;20419;-89
2022/04/17 07:10:48;;;;;;;6.80;3.00;;;;;;;6.26;58.64;102743.88;5038908;28;20029;-90
2022/04/17 07:13:15;;;;;;;4.53;3.10;;;;;;;6.42;59.54;102761.53;5030970;28;20029;-90
2022/04/17 07:15:43;;;;;;;5.97;3.17;;;;;;;6.44;59.85;102757.69;5033452;28;20025;-92
2022/04/17 07:18:20;;;;;;;3.05;2.33;;;;;;;6.42;59.48;102754.38;5038794;28;20109;-90
2022/04/17 07:20:45;;;;;;;6.80;3.10;;;;;;;6.60;58.53;102750.50;5034427;28;20052;-90
2022/04/17 07:23:11;;;;;;;4.77;2.90;;;;;;;6.69;59.09;102735.25;5052407;28;20283;-90
2022/04/17 07:25:47;;;;;;;6.43;2.90;;;;;;;6.88;58.55;102750.69;5052499;28;20033;-90
2022/04/17 07:28:15;;;;;;;8.40;3.00;;;;;;;7.00;57.29;102751.03;5034268;28;20033;-90
2022/04/17 07:31:08;;;;;;;3.97;2.72;;;;;;;7.09;57.03;102749.09;5034031;28;20033;-90
2022/04/17 07:33:36;;;;;;;4.20;2.63;;;;;;;7.21;56.00;102739.59;5014660;28;20041;-90
2022/04/17 07:36:09;;;;;;;3.47;2.50;;;;;;;7.28;55.71;102731.69;5034111;28;20067;-90
2022/04/17 07:38:34;;;;;;;6.50;2.63;;;;;;;7.46;54.37;102720.56;5052151;28;20044;-90
2022/04/17 07:41:00;;;;;;;4.60;2.83;;;;;;;7.66;54.10;102736.78;5054296;28;20029;-90
2022/04/17 07:43:25;;;;;;;6.43;2.63;;;;;;;7.69;54.17;102717.69;5052962;28;20017;-90
2022/04/17 07:46:03;;;;;;;4.30;2.90;;;;;;;7.89;54.49;102722.38;5054264;28;20024;-90
2022/04/17 07:48:29;;;;;;;8.65;2.75;;;;;;;7.99;52.43;102728.22;5050425;28;20033;-90
2022/04/17 07:51:04;;;;;;;4.93;2.87;;;;;;;8.07;53.44;102721.91;5053152;28;20025;-90
2022/04/17 07:53:31;;;;;;;5.72;2.42;;;;;;;8.24;52.56;102724.28;5053421;28;20036;-91
2022/04/17 07:55:56;;;;;;;3.38;2.30;;;;;;;8.33;51.74;102723.94;5053698;28;20060;-90
2022/04/17 07:58:45;;;;;;;3.67;2.20;;;;;;;8.41;51.71;102724.78;5054802;28;20025;-90
2022/04/17 08:01:16;;;;;;;6.40;2.40;;;;;;;8.60;51.05;102721.44;5057223;28;20283;-90
2022/04/17 08:03:51;;;;;;;8.43;2.20;;;;;;;8.66;50.98;102725.19;5063080;28;20025;-90
2022/04/17 08:06:21;;;;;;;3.20;2.45;;;;;;;8.83;51.59;102730.19;5066057;28;20427;-90
2022/04/17 08:09:19;;;;;;;4.28;2.33;;;;;;;8.90;51.43;102721.19;5050142;28;20033;-90
2022/04/17 08:15:10;;;;;;;6.85;2.33;;;;;;;9.21;50.59;102711.78;5048336;28;20049;-90
2022/04/17 08:17:38;;;;;;;3.45;2.63;;;;;;;9.35;50.06;102711.81;4979189;28;20049;-90
2022/04/17 08:20:32;;;;;;;2.72;1.92;;;;;;;9.38;48.50;102698.88;4977069;28;20118;-90
2022/04/17 08:23:00;;;;;;;4.22;2.10;;;;;;;9.66;48.03;102719.28;5011491;28;20049;-91
2022/04/17 08:25:30;;;;;;;7.07;2.20;;;;;;;9.80;47.74;102713.91;5038726;28;20028;-89
2022/04/17 08:28:07;;;;;;;;;;;;;;;;;;;;;
2022/04/17 08:30:54;;;;;;;3.55;2.28;;;;;;;9.96;48.24;102699.28;5056888;28;20033;-90
2022/04/17 08:33:34;;;;;;;4.07;2.40;;;;;;;10.27;48.44;102716.53;5053922;28;20055;-90
2022/04/17 08:36:17;;;;;;;5.13;2.28;;;;;;;10.36;47.19;102701.91;5021601;28;20036;-92
2022/04/17 08:39:03;;;;;;;3.60;2.00;;;;;;;10.47;46.49;102699.63;5061238;28;20029;-90
2022/04/17 08:41:32;;;;;;;3.35;2.30;;;;;;;10.69;45.07;102709.03;5055556;28;20096;-91
2022/04/17 08:44:43;;;;;;;;;;;;;;;;;;;;;
2022/04/17 08:47:21;;;;;;;6.40;2.47;;;;;;;10.92;46.28;102710.38;4965848;28;20122;-90
2022/04/17 08:50:20;;;;;;;6.75;2.30;;;;;;;10.98;45.09;102693.41;5063797;28;20029;-90
2022/04/17 08:53:22;;;;;;;3.90;2.33;;;;;;;11.21;42.87;102711.69;5061356;28;20025;-92
2022/04/17 08:59:27;;;;;;;4.25;2.17;;;;;;;11.43;43.81;102697.06;4956643;29;20120;-91
2022/04/17 09:01:53;;;;;;;5.93;2.50;;;;;;;11.49;42.98;102688.97;4958192;29;20051;-91
2022/04/17 09:04:52;;;;;;;3.37;2.30;;;;;;;11.69;43.90;102700.59;4964172;29;20038;-90
2022/04/17 09:07:23;;;;;;;3.60;2.00;;;;;;;11.78;43.17;102688.53;4955665;29;20078;-91
2022/04/17 09:09:53;;;;;;;3.22;2.22;;;;;;;12.02;41.78;102702.19;4954179;29;20848;-90
2022/04/17 09:12:44;;;;;;;7.85;2.30;;;;;;;12.05;42.26;102699.06;4954317;29;20031;-89
2022/04/17 09:15:15;;;;;;;3.30;2.13;;;;;;;12.04;41.10;102687.50;4954088;29;20034;-91
2022/04/17 09:17:59;;;;;;;4.28;2.28;;;;;;;12.12;42.38;102667.56;4954020;29;20047;-90
2022/04/17 09:20:31;;;;;;;5.35;2.58;;;;;;;12.30;41.83;102696.34;4954369;29;20031;-90
2022/04/17 09:23:45;;;;;;;;;;;;;;;;;;;;;
2022/04/17 09:26:15;;;;;;;5.35;1.98;;;;;;;12.62;40.78;102687.25;5008497;28;20026;-91
2022/04/17 09:28:53;;;;;;;5.73;2.33;;;;;;;12.67;40.56;102674.81;5030367;28;20038;-91
2022/04/17 09:32:03;;;;;;;3.80;2.33;;;;;;;12.75;39.60;102675.53;5034527;28;20636;-91
2022/04/17 09:34:52;;;;;;;4.63;2.35;;;;;;;12.92;40.44;102673.84;5033246;28;20115;-91
2022/04/17 09:40:51;;;;;;;3.90;2.20;;;;;;;13.08;41.07;102653.53;5033868;28;20041;-91
2022/04/17 09:43:24;;;;;;;5.97;2.40;;;;;;;13.17;39.92;102670.19;4998945;28;20029;-91
2022/04/17 09:46:08;;;;;;;4.28;2.03;;;;;;;13.24;39.06;102656.63;5033313;28;20061;-91
2022/04/17 09:52:04;;;;;;;3.80;2.05;;;;;;;13.44;38.46;102638.31;5012825;28;20030;-91
2022/04/17 09:54:44;;;;;;;3.97;2.17;;;;;;;13.57;38.61;102633.72;4997510;28;20181;-90
2022/04/17 10:00:12;;;;;;;3.93;2.57;;;;;;;13.88;38.30;102637.13;5069831;23;20442;-90
2022/04/17 10:02:52;;;;;;;7.07;2.30;;;;;;;13.85;38.15;102619.56;5101944;28;20040;-90
2022/04/17 10:05:20;;;;;;;6.22;2.42;;;;;;;13.99;37.45;102630.06;5080608;28;20040;-90
2022/04/17 10:08:03;;;;;;;3.13;2.10;;;;;;;14.11;36.92;102621.97;5102487;28;20024;-91
2022/04/17 10:10:29;;;;;;;4.25;2.47;;;;;;;14.15;36.93;102617.75;5065732;28;20043;-89
2022/04/17 10:13:20;;;;;;;3.97;2.00;;;;;;;14.24;37.99;102617.13;5078231;28;20028;-90
2022/04/17 10:15:47;;;;;;;3.63;2.30;;;;;;;14.37;36.04;102610.66;5083542;28;20032;-91
2022/04/17 10:18:40;;;;;;;4.82;2.10;;;;;;;14.54;36.34;102605.28;5056270;28;20032;-91
2022/04/17 10:21:38;;;;;;;2.47;2.20;;;;;;;14.52;35.89;102588.53;5035673;28;20037;-91
2022/04/17 10:28:06;;;;;;;2.47;2.10;;;;;;;14.92;35.76;102589.53;5031390;28;20451;-91
2022/04/17 10:31:20;;;;;;;;;;;;;;;;;;;;;
2022/04/17 10:34:22;;;;;;;4.15;1.90;;;;;;;15.39;35.47;102572.19;5047275;28;20053;-90
2022/04/17 10:37:23;;;;;;;4.10;1.95;;;;;;;15.44;35.05;102569.53;5047576;28;20480;-92
2022/04/17 10:40:04;;;;;;;2.50;1.63;;;;;;;15.40;33.19;102557.63;5046720;28;20093;-88
2022/04/17 10:43:31;;;;;;;;;;;;;;;;;;;;;
2022/04/17 10:46:36;;;;;;;3.27;1.70;;;;;;;15.62;33.91;102542.50;5049040;28;20296;-90
2022/04/17 10:49:02;;;;;;;2.53;1.98;;;;;;;15.70;31.93;102544.78;5003284;28;20037;-90
2022/04/17 10:52:21;;;;;;;2.47;2.00;;;;;;;15.76;32.68;102532.94;5036952;28;20558;-90
2022/04/17 11:03:22;;;;;;;2.33;1.85;;;;;;;16.25;31.35;102528.69;5054994;28;20066;-91
2022/04/17 11:09:21;;;;;;;4.35;1.92;;;;;;;16.55;32.05;102530.03;5081987;23;20051;-90
2022/04/17 11:12:16;;;;;;;4.57;1.75;;;;;;;16.53;30.78;102505.91;5057948;28;20090;-91
2022/04/17 11:15:32;;;;;;;4.18;1.98;;;;;;;16.60;30.16;102525.47;5076633;28;20024;-92
2022/04/17 11:18:04;;;;;;;6.85;2.05;;;;;;;16.45;30.26;102515.31;5075904;28;20604;-92
2022/04/17 11:20:30;;;;;;;4.35;2.10;;;;;;;16.73;30.92;102513.41;5076124;28;20066;-90
2022/04/17 11:23:13;;;;;;;4.70;2.17;;;;;;;16.87;30.69;102497.56;5052036;28;20037;-91
2022/04/17 11:25:57;;;;;;;3.37;1.80;;;;;;;17.04;30.44;102489.28;5084897;28;20013;-91
2022/04/17 11:31:39;;;;;;;7.70;1.90;;;;;;;17.20;29.46;102486.66;4990952;28;20046;-92
2022/04/17 11:37:27;;;;;;;2.22;1.70;;;;;;;17.49;29.14;102489.81;4928643;29;20051;-91
2022/04/17 11:40:28;;;;;;;3.80;1.90;;;;;;;17.57;29.45;102488.47;4914723;29;20154;-92
2022/04/17 11:43:27;;;;;;;3.97;1.83;;;;;;;17.60;27.80;102482.53;4914762;29;20047;-92
2022/04/17 11:46:55;;;;;;;;;;;;;;;;;;;;;
2022/04/17 11:53:00;;;;;;;2.60;2.20;;;;;;;17.70;28.43;102450.06;4898813;29;20043;-92
2022/04/17 11:55:53;;;;;;;3.13;2.00;;;;;;;17.77;28.69;102448.97;4898472;29;20445;-93
2022/04/17 11:59:19;;;;;;;3.40;1.70;;;;;;;17.84;26.73;102460.38;5031799;22;20341;-92
2022/04/17 12:38:48;;;;;;;;;;;;;;;;;;;;;
2022/04/17 13:44:42;;;;;;;1.90;1.80;;;;;;;19.74;25.30;102291.81;5082652;22;20047;-91
2022/04/17 13:58:23;;;;;;;1.97;1.57;;;;;;;19.80;23.47;102255.34;5843359;22;20307;-92
2022/04/17 14:13:44;;;;;;;2.75;1.98;;;;;;;19.79;25.29;102219.16;5079307;22;20067;-92
2022/04/17 14:16:16;;;;;;;1.98;1.77;;;;;;;19.86;24.15;102213.38;5083283;22;20049;-91
2022/04/17 14:22:24;;;;;;;5.25;1.67;;;;;;;19.65;24.30;102213.56;5074577;28;20106;-92
2022/04/17 14:37:18;;;;;;;9.45;1.75;;;;;;;20.51;23.37;102212.16;5078932;28;20066;-92
2022/04/17 14:39:50;;;;;;;4.00;1.83;;;;;;;20.40;23.34;102184.25;5072655;28;20024;-91
2022/04/17 14:42:17;;;;;;;3.78;1.73;;;;;;;20.52;24.16;102183.81;5050619;28;20044;-92
2022/04/17 15:10:46;;;;;;;3.80;2.10;;;;;;;20.22;24.05;102144.19;5090474;28;20109;-91
2022/04/17 15:13:23;;;;;;;3.90;2.00;;;;;;;20.31;23.94;102128.81;5092614;28;20024;-92
2022/04/17 16:29:46;;;;;;;1.77;1.42;;;;;;;20.75;23.68;102066.91;5084214;28;20098;-92
2022/04/17 16:32:19;;;;;;;4.68;1.63;;;;;;;20.68;24.19;102074.69;5066037;28;20119;-92
2022/04/17 16:35:35;;;;;;;2.15;1.38;;;;;;;20.75;24.21;102077.03;5062531;28;20029;-92
2022/04/17 17:07:42;;;;;;;1.80;1.30;;;;;;;19.35;25.38;102032.59;5082379;22;20067;-92
2022/04/17 17:38:22;;;;;;;1.95;1.10;;;;;;;17.47;27.57;102017.78;6163325;22;20110;-92
2022/04/17 17:51:29;;;;;;;3.05;1.02;;;;;;;16.79;29.11;102014.34;5075057;28;20047;-92
2022/04/17 17:57:37;;;;;;;1.33;1.00;;;;;;;16.59;28.89;102017.06;5523961;22;20095;-92
2022/04/17 18:15:42;;;;;;;2.43;0.90;;;;;;;15.65;30.71;101998.94;5095072;28;20116;-90
2022/04/17 18:18:20;;;;;;;7.13;1.00;;;;;;;15.49;31.09;102008.84;4992229;28;20293;-91
2022/04/17 18:21:20;;;;;;;1.95;1.00;;;;;;;15.41;31.03;102013.69;4993431;28;20049;-91
2022/04/17 18:31:10;;;;;;;1.63;0.85;;;;;;;14.78;32.45;102016.22;5088142;28;20063;-91
2022/04/17 18:37:49;;;;;;;2.58;1.13;;;;;;;14.36;33.41;102014.97;5191246;22;20079;-90
2022/04/17 18:43:55;;;;;;;2.67;0.90;;;;;;;13.98;35.20;102014.84;5087773;28;20039;-91
2022/04/17 19:24:05;;;;;;;5.65;2.97;;;;;;;11.90;42.28;101993.75;5195836;22;20061;-90
2022/04/17 19:35:42;;;;;;;3.83;2.30;;;;;;;11.48;43.26;101997.47;5081586;22;20051;-90
2022/04/17 19:57:37;;;;;;;6.32;2.60;;;;;;;10.84;46.48;101982.06;6017980;22;20145;-90
2022/04/17 20:15:25;;;;;;;4.20;2.80;;;;;;;10.37;48.22;101972.03;5645573;22;20082;-90
2022/04/17 20:29:44;;;;;;;7.70;3.22;;;;;;;9.85;50.77;101941.22;5554682;22;20412;-90
2022/04/17 21:07:58;;;;;;;12.38;4.47;;;;;;;8.86;53.28;101928.66;5073108;28;20040;-89
2022/04/17 21:10:26;;;;;;;8.23;4.65;;;;;;;8.77;55.07;101916.59;4962020;28;20098;-89
2022/04/17 21:12:52;;;;;;;10.10;5.47;;;;;;;8.75;56.22;101930.19;4955305;28;20030;-89
2022/04/17 21:22:24;;;;;;;8.43;4.85;;;;;;;8.45;56.18;101911.28;4921254;29;20047;-90
2022/04/17 22:15:44;;;;;;;9.43;5.53;;;;;;;7.37;60.65;101901.16;5045328;22;20071;-89
2022/04/17 22:18:22;;;;;;;9.70;5.30;;;;;;;7.27;60.67;101900.78;5086170;28;20282;-89
2022/04/17 22:20:53;;;;;;;8.80;5.72;;;;;;;7.34;62.46;101919.41;5085817;28;20035;-89
2022/04/17 22:23:50;;;;;;;10.13;5.88;;;;;;;7.19;60.61;101906.31;5085882;28;20027;-89
2022/04/17 22:26:19;;;;;;;10.45;6.32;;;;;;;7.20;61.28;101908.78;5060991;28;20067;-89
2022/04/17 22:29:34;;;;;;;9.65;6.40;;;;;;;7.07;59.95;101888.31;5056620;28;20373;-88
2022/04/17 22:33:05;;;;;;;;;;;;;;;;;;;;;
2022/04/17 22:39:42;;;;;;;9.85;5.78;;;;;;;6.87;60.75;101898.97;5062453;28;20101;-88
2022/04/17 22:46:24;;;;;;;11.37;7.00;;;;;;;6.74;61.93;101894.50;5035069;28;20097;-89
2022/04/17 22:52:39;;;;;;;9.82;6.15;;;;;;;6.76;61.90;101910.28;5067957;28;20043;-89
2022/04/17 22:59:43;;;;;;;9.70;6.40;;;;;;;6.66;62.23;101898.16;4990383;28;20039;-88
2022/04/17 23:02:23;;;;;;;11.48;6.57;;;;;;;6.55;63.14;101880.16;4942760;28;20035;-87
2022/04/17 23:05:43;;;;;;;11.40;6.25;;;;;;;6.50;62.84;101880.75;4995629;28;20501;-89
2022/04/17 23:19:23;;;;;;;8.50;6.20;;;;;;;6.40;63.55;101888.31;4928216;29;20032;-89
2022/04/17 23:21:56;;;;;;;12.00;6.10;;;;;;;6.31;64.30;101873.59;4934214;29;20280;-89
2022/04/17 23:28:42;;;;;;;10.90;5.80;;;;;;;6.17;64.29;101872.75;4930114;29;20270;-89
2022/04/17 23:31:23;;;;;;;9.38;6.05;;;;;;;6.19;64.50;101882.19;4987357;28;20034;-89
2022/04/17 23:34:15;;;;;;;8.57;5.60;;;;;;;6.05;64.93;101870.69;4991810;28;20022;-89
2022/04/17 23:36:45;;;;;;;9.00;5.65;;;;;;;6.08;65.21;101876.63;5053694;28;20078;-89
2022/04/17 23:39:44;;;;;;;8.40;5.82;;;;;;;5.99;65.18;101865.31;5071419;28;20057;-89
2022/04/17 23:42:23;;;;;;;9.90;5.70;;;;;;;6.02;65.57;101871.09;5072029;28;20085;-89
2022/04/17 23:44:50;;;;;;;12.50;6.22;;;;;;;6.06;66.40;101880.31;5075419;28;20070;-88
2022/04/17 23:47:39;;;;;;;9.00;5.40;;;;;;;6.01;65.22;101871.28;5075631;28;20525;-89